KDAY/DAY METAR and TAF weather

Enter ICAO airport designator
Station Type Date Time Source
KDAY METAR 2019/06/26 21:56 UTC NOAA

KDAY 262156Z 22008KT 10SM SCT060 31/19 A3011 RMK AO2 SLP187 T03110189


Station Type Date Time Source
KDAY Decoded METAR 2019/06/26 21:56 UTC NOAA

COX DAYTON INTERNATIONAL, OH, United States (KDAY) 39-54N 084-13W 305M
Jun 26, 2019 - 05:56 PM EDT / 2019.06.26 2156 UTC
Wind: from the SW (220 degrees) at 9 MPH (8 KT):0
Visibility: 10 mile(s):0
Sky conditions: partly cloudy
Temperature: 88.0 F (31.1 C)
Dew Point: 66.0 F (18.9 C)
Relative Humidity: 48%
Pressure (altimeter): 30.11 in. Hg (1019 hPa)
ob: KDAY 262156Z 22008KT 10SM SCT060 31/19 A3011 RMK AO2 SLP187 T03110189
cycle: 22

Station Type Date Time Source
KDAY TAF 2019/06/26 18:51 UTC NOAA

TAF
AMD KDAY 261749Z 2618/2718 25008KT P6SM SCT050
FM262200 25008KT P6SM VCTS SCT050CB
FM270200 23005KT P6SM SCT070
FM271200 21003KT 5SM BR SCT090
FM271700 22007KT P6SM SCT060

Example: see airport list